createdAt,value
2017-07-31T00:00:36.642Z,988.9
2017-07-31T00:01:36.647Z,988.88
2017-07-31T00:02:36.652Z,988.89
2017-07-31T00:03:36.655Z,988.88
2017-07-31T00:04:36.686Z,988.86
2017-07-31T00:05:36.670Z,988.89
2017-07-31T00:06:36.670Z,988.86
2017-07-31T00:07:36.672Z,988.8
2017-07-31T00:08:36.677Z,988.8
2017-07-31T00:09:36.679Z,988.77
2017-07-31T00:10:36.685Z,988.78
2017-07-31T00:11:36.688Z,988.77
2017-07-31T00:12:36.689Z,988.78
2017-07-31T00:13:36.695Z,988.83
2017-07-31T00:14:36.698Z,988.78
2017-07-31T00:15:36.702Z,988.8
2017-07-31T00:16:36.705Z,988.77
2017-07-31T00:17:36.728Z,988.8
2017-07-31T00:18:36.713Z,988.8
2017-07-31T00:19:36.717Z,988.86
2017-07-31T00:20:36.731Z,988.83
2017-07-31T00:21:36.747Z,988.82
2017-07-31T00:22:36.742Z,988.89
2017-07-31T00:23:36.745Z,988.91
2017-07-31T00:24:36.738Z,988.94
2017-07-31T00:25:36.739Z,988.99
2017-07-31T00:26:36.743Z,988.96
2017-07-31T00:27:36.763Z,989
2017-07-31T00:28:36.751Z,989.01
2017-07-31T00:29:39.457Z,989
2017-07-31T00:30:36.759Z,988.96
2017-07-31T00:31:36.760Z,988.98
2017-07-31T00:32:36.766Z,988.92
2017-07-31T00:33:36.771Z,988.91
2017-07-31T00:34:36.775Z,988.9
2017-07-31T00:35:36.779Z,988.93
2017-07-31T00:36:36.781Z,988.98
2017-07-31T00:37:36.785Z,989.03
2017-07-31T00:38:36.809Z,989.05
2017-07-31T00:39:36.812Z,989.1
2017-07-31T00:40:36.810Z,989.09
2017-07-31T00:41:36.817Z,989.11
2017-07-31T00:42:36.805Z,989.15
2017-07-31T00:43:36.811Z,989.14
2017-07-31T00:44:36.811Z,989.13
2017-07-31T00:45:36.815Z,989.18
2017-07-31T00:46:36.821Z,989.2
2017-07-31T00:47:36.834Z,989.23
2017-07-31T00:48:36.826Z,989.18
2017-07-31T00:49:36.830Z,989.15
2017-07-31T00:50:36.834Z,989.17
2017-07-31T00:51:36.837Z,989.18
2017-07-31T00:52:36.847Z,989.18
2017-07-31T00:53:36.853Z,989.2
2017-07-31T00:54:36.849Z,989.18
2017-07-31T00:55:36.853Z,989.24
2017-07-31T00:56:36.857Z,989.21
2017-07-31T00:57:36.861Z,989.25
2017-07-31T00:58:36.864Z,989.22
2017-07-31T00:59:36.868Z,989.21
2017-07-31T01:00:36.873Z,989.19
2017-07-31T01:01:36.876Z,989.15
2017-07-31T01:02:36.878Z,989.2
2017-07-31T01:03:36.883Z,989.16
2017-07-31T01:04:36.888Z,989.21
2017-07-31T01:05:36.891Z,989.23
2017-07-31T01:06:36.894Z,989.28
2017-07-31T01:07:36.901Z,989.35
2017-07-31T01:08:36.902Z,989.38
2017-07-31T01:09:36.905Z,989.38
2017-07-31T01:10:36.942Z,989.37
2017-07-31T01:11:36.914Z,989.41
2017-07-31T01:12:36.917Z,989.42
2017-07-31T01:13:36.920Z,989.41
2017-07-31T01:14:36.925Z,989.36
2017-07-31T01:15:36.928Z,989.36
2017-07-31T01:16:36.945Z,989.28
2017-07-31T01:17:36.946Z,989.27
2017-07-31T01:18:36.943Z,989.28
2017-07-31T01:19:36.942Z,989.29
2017-07-31T01:20:36.947Z,989.24
2017-07-31T01:21:36.952Z,989.24
2017-07-31T01:22:36.953Z,989.25
2017-07-31T01:23:36.959Z,989.33
2017-07-31T01:24:36.957Z,989.33
2017-07-31T01:25:36.964Z,989.33
2017-07-31T01:26:36.966Z,989.28
2017-07-31T01:27:36.974Z,989.32
2017-07-31T01:28:36.981Z,989.3
2017-07-31T01:29:36.982Z,989.33
2017-07-31T01:30:36.982Z,989.37
2017-07-31T01:31:36.981Z,989.37
2017-07-31T01:32:36.985Z,989.46
2017-07-31T01:33:36.990Z,989.47
2017-07-31T01:34:36.993Z,989.53
2017-07-31T01:35:37.013Z,989.61
2017-07-31T01:36:37.014Z,989.58
2017-07-31T01:37:37.011Z,989.59
2017-07-31T01:38:37.011Z,989.57
2017-07-31T01:39:37.011Z,989.58
2017-07-31T01:40:37.016Z,989.6
2017-07-31T01:41:37.019Z,989.63
2017-07-31T01:42:37.025Z,989.61
2017-07-31T01:43:37.030Z,989.63
2017-07-31T01:44:37.029Z,989.64
2017-07-31T01:45:40.292Z,989.54
2017-07-31T01:46:37.037Z,989.54
2017-07-31T01:47:37.057Z,989.46
2017-07-31T01:48:37.042Z,989.47
2017-07-31T01:49:37.045Z,989.48
2017-07-31T01:50:37.051Z,989.48
2017-07-31T01:51:37.053Z,989.48
2017-07-31T01:52:37.058Z,989.42
2017-07-31T01:53:37.061Z,989.42
2017-07-31T01:54:37.064Z,989.43
2017-07-31T01:55:37.069Z,989.4
2017-07-31T01:56:37.072Z,989.36
2017-07-31T01:57:37.075Z,989.35
2017-07-31T01:58:37.077Z,989.29
2017-07-31T01:59:37.081Z,989.27
2017-07-31T02:00:37.097Z,989.16
2017-07-31T02:01:37.086Z,989.13
2017-07-31T02:02:37.094Z,989.08
2017-07-31T02:03:37.093Z,989.01
2017-07-31T02:04:37.095Z,988.98
2017-07-31T02:05:37.103Z,988.92
2017-07-31T02:06:37.109Z,988.91
2017-07-31T02:07:37.107Z,988.92
2017-07-31T02:08:37.120Z,988.94
2017-07-31T02:09:37.116Z,988.95
2017-07-31T02:10:37.118Z,988.99
2017-07-31T02:11:37.122Z,988.93
2017-07-31T02:12:37.129Z,988.96
2017-07-31T02:13:37.129Z,988.97
2017-07-31T02:14:37.131Z,988.92
2017-07-31T02:15:37.140Z,988.92
2017-07-31T02:16:37.139Z,988.94
2017-07-31T02:17:37.145Z,988.92
2017-07-31T02:18:37.159Z,988.91
2017-07-31T02:19:37.150Z,988.92
2017-07-31T02:20:37.157Z,988.93
2017-07-31T02:21:37.163Z,988.92
2017-07-31T02:22:37.157Z,988.94
2017-07-31T02:23:37.161Z,988.93
2017-07-31T02:24:37.167Z,988.94
2017-07-31T02:25:37.170Z,988.97
2017-07-31T02:26:37.171Z,988.93
2017-07-31T02:27:37.175Z,988.93
2017-07-31T02:28:37.177Z,988.93
2017-07-31T02:29:37.182Z,988.92
2017-07-31T02:30:37.184Z,988.92
2017-07-31T02:31:37.187Z,988.93
2017-07-31T02:32:37.191Z,988.91
2017-07-31T02:33:37.195Z,988.89
2017-07-31T02:34:37.198Z,988.85
2017-07-31T02:35:37.204Z,988.84
2017-07-31T02:36:37.212Z,988.8
2017-07-31T02:37:37.207Z,988.81
2017-07-31T02:38:37.213Z,988.79
2017-07-31T02:39:37.215Z,988.84
2017-07-31T02:40:37.218Z,988.84
2017-07-31T02:41:37.223Z,988.9
2017-07-31T02:42:37.224Z,988.9
2017-07-31T02:43:37.228Z,988.89
2017-07-31T02:44:37.232Z,988.93
2017-07-31T02:45:37.234Z,988.92
2017-07-31T02:46:37.538Z,989.02
2017-07-31T02:47:37.244Z,989.05
2017-07-31T02:48:37.244Z,989.1
2017-07-31T02:49:37.248Z,989.14
2017-07-31T02:50:37.250Z,989.15
2017-07-31T02:51:37.254Z,989.1
2017-07-31T02:52:37.257Z,989.05
2017-07-31T02:53:37.260Z,989.07
2017-07-31T02:54:37.264Z,989.03
2017-07-31T02:55:37.270Z,989.04
2017-07-31T02:56:37.271Z,989.05
2017-07-31T02:57:37.277Z,989.09
2017-07-31T02:58:37.281Z,989.15
2017-07-31T02:59:37.284Z,989.17
2017-07-31T03:00:37.285Z,989.15
2017-07-31T03:01:37.293Z,989.17
2017-07-31T03:02:37.291Z,989.2
2017-07-31T03:03:37.296Z,989.16
2017-07-31T03:04:37.297Z,989.13
2017-07-31T03:05:37.302Z,989.21
2017-07-31T03:06:37.303Z,989.19
2017-07-31T03:07:37.307Z,989.21
2017-07-31T03:08:37.312Z,989.19
2017-07-31T03:09:37.315Z,989.19
2017-07-31T03:10:37.317Z,989.24
2017-07-31T03:11:37.321Z,989.19
2017-07-31T03:12:37.324Z,989.19
2017-07-31T03:13:37.329Z,989.2
2017-07-31T03:14:37.330Z,989.2
2017-07-31T03:15:37.333Z,989.22
2017-07-31T03:16:37.337Z,989.23
2017-07-31T03:17:37.339Z,989.25
2017-07-31T03:18:37.344Z,989.24
2017-07-31T03:19:37.347Z,989.31
2017-07-31T03:20:37.350Z,989.28
2017-07-31T03:21:37.353Z,989.29
2017-07-31T03:22:37.356Z,989.28
2017-07-31T03:23:37.362Z,989.3
2017-07-31T03:24:37.362Z,989.29
2017-07-31T03:25:37.365Z,989.36
2017-07-31T03:26:37.369Z,989.35
2017-07-31T03:27:37.372Z,989.38
2017-07-31T03:28:37.377Z,989.37
2017-07-31T03:29:37.378Z,989.34
2017-07-31T03:30:37.385Z,989.28
2017-07-31T03:31:37.385Z,989.27
2017-07-31T03:32:37.437Z,989.27
2017-07-31T03:33:37.390Z,989.27
2017-07-31T03:34:37.403Z,989.25
2017-07-31T03:35:37.404Z,989.22
2017-07-31T03:36:37.406Z,989.26
2017-07-31T03:37:37.406Z,989.24
2017-07-31T03:38:37.407Z,989.21
2017-07-31T03:39:37.409Z,989.19
2017-07-31T03:40:37.415Z,989.24
2017-07-31T03:41:37.414Z,989.27
2017-07-31T03:42:37.417Z,989.33
2017-07-31T03:43:37.420Z,989.32
2017-07-31T03:44:37.424Z,989.35
2017-07-31T03:45:37.427Z,989.39
2017-07-31T03:46:37.430Z,989.39
2017-07-31T03:47:39.235Z,989.38
2017-07-31T03:48:37.442Z,989.36
2017-07-31T03:49:37.440Z,989.3
2017-07-31T03:50:37.441Z,989.26
2017-07-31T03:51:37.443Z,989.27
2017-07-31T03:52:37.453Z,989.21
2017-07-31T03:53:37.449Z,989.19
2017-07-31T03:54:37.453Z,989.19
2017-07-31T03:55:37.457Z,989.2
2017-07-31T03:56:37.459Z,989.25
2017-07-31T03:57:37.462Z,989.21
2017-07-31T03:58:37.466Z,989.19
2017-07-31T03:59:37.469Z,989.18
2017-07-31T04:00:37.479Z,989.24
2017-07-31T04:01:37.474Z,989.2
2017-07-31T04:02:37.485Z,989.2
2017-07-31T04:03:37.480Z,989.25
2017-07-31T04:04:37.484Z,989.29
2017-07-31T04:05:37.486Z,989.37
2017-07-31T04:06:37.489Z,989.39
2017-07-31T04:07:37.491Z,989.39
2017-07-31T04:08:37.493Z,989.39
2017-07-31T04:09:37.497Z,989.38
2017-07-31T04:10:37.499Z,989.38
2017-07-31T04:11:37.502Z,989.34
2017-07-31T04:12:37.503Z,989.34
2017-07-31T04:13:37.509Z,989.39
2017-07-31T04:14:37.510Z,989.44
2017-07-31T04:15:37.514Z,989.37
2017-07-31T04:16:37.514Z,989.36
2017-07-31T04:17:37.516Z,989.33
2017-07-31T04:18:37.520Z,989.35
2017-07-31T04:19:37.521Z,989.31
2017-07-31T04:20:37.524Z,989.31
2017-07-31T04:21:37.610Z,989.33
2017-07-31T04:22:37.531Z,989.33
2017-07-31T04:23:37.532Z,989.32
2017-07-31T04:24:37.534Z,989.3
2017-07-31T04:25:37.613Z,989.31
2017-07-31T04:26:37.540Z,989.27
2017-07-31T04:27:37.541Z,989.24
2017-07-31T04:28:37.544Z,989.24
2017-07-31T04:29:37.546Z,989.29
2017-07-31T04:30:37.548Z,989.28
2017-07-31T04:31:37.552Z,989.32
2017-07-31T04:32:37.553Z,989.3
2017-07-31T04:33:37.607Z,989.32
2017-07-31T04:34:37.559Z,989.29
2017-07-31T04:35:37.562Z,989.32
2017-07-31T04:36:37.564Z,989.31
2017-07-31T04:37:37.566Z,989.29
2017-07-31T04:38:37.569Z,989.29
2017-07-31T04:39:37.571Z,989.3
2017-07-31T04:40:37.573Z,989.31
2017-07-31T04:41:37.575Z,989.43
2017-07-31T04:42:37.580Z,989.38
2017-07-31T04:43:37.582Z,989.39
2017-07-31T04:44:37.585Z,989.35
2017-07-31T04:45:37.588Z,989.34
2017-07-31T04:46:37.591Z,989.32
2017-07-31T04:47:37.599Z,989.35
2017-07-31T04:48:38.747Z,989.3
2017-07-31T04:49:37.599Z,989.33
2017-07-31T04:50:37.603Z,989.3
2017-07-31T04:51:37.605Z,989.27
2017-07-31T04:52:37.609Z,989.3
2017-07-31T04:53:37.611Z,989.41
2017-07-31T04:54:37.616Z,989.43
2017-07-31T04:55:37.620Z,989.46
2017-07-31T04:56:37.621Z,989.5
2017-07-31T04:57:37.628Z,989.51
2017-07-31T04:58:37.630Z,989.47
2017-07-31T04:59:37.633Z,989.47
2017-07-31T05:00:37.637Z,989.5
2017-07-31T05:01:37.647Z,989.54
2017-07-31T05:02:37.645Z,989.55
2017-07-31T05:03:37.649Z,989.54
2017-07-31T05:04:37.671Z,989.54
2017-07-31T05:05:37.669Z,989.6
2017-07-31T05:06:37.668Z,989.64
2017-07-31T05:07:37.674Z,989.62
2017-07-31T05:08:37.682Z,989.63
2017-07-31T05:09:37.691Z,989.66
2017-07-31T05:10:37.685Z,989.7
2017-07-31T05:11:37.692Z,989.69
2017-07-31T05:12:37.692Z,989.68
2017-07-31T05:13:37.717Z,989.75
2017-07-31T05:14:37.704Z,989.74
2017-07-31T05:15:37.713Z,989.73
2017-07-31T05:16:37.726Z,989.72
2017-07-31T05:17:37.720Z,989.74
2017-07-31T05:18:37.729Z,989.72
2017-07-31T05:19:37.729Z,989.77
2017-07-31T05:20:37.737Z,989.76
2017-07-31T05:21:37.739Z,989.76
2017-07-31T05:22:37.745Z,989.72
2017-07-31T05:23:37.763Z,989.75
2017-07-31T05:24:37.770Z,989.79
2017-07-31T05:25:37.775Z,989.79
2017-07-31T05:26:37.785Z,989.8
2017-07-31T05:27:37.786Z,989.86
2017-07-31T05:28:37.786Z,989.84
2017-07-31T05:29:37.781Z,989.83
2017-07-31T05:30:37.786Z,989.87
2017-07-31T05:31:37.798Z,989.88
2017-07-31T05:32:37.794Z,989.83
2017-07-31T05:33:37.791Z,989.85
2017-07-31T05:34:37.806Z,989.97
2017-07-31T05:35:37.812Z,989.77
2017-07-31T05:36:37.815Z,989.74
2017-07-31T05:37:37.834Z,989.84
2017-07-31T05:38:37.823Z,989.78
2017-07-31T05:39:37.834Z,989.8
2017-07-31T05:40:37.849Z,989.8
2017-07-31T05:41:37.841Z,989.92
2017-07-31T05:42:37.841Z,989.92
2017-07-31T05:43:37.842Z,990.02
2017-07-31T05:44:37.845Z,990
2017-07-31T05:45:37.862Z,989.99
2017-07-31T05:46:37.858Z,989.97
2017-07-31T05:47:37.867Z,989.92
2017-07-31T05:48:37.881Z,989.98
2017-07-31T05:49:37.886Z,989.98
2017-07-31T05:50:37.877Z,990.04
2017-07-31T05:51:37.891Z,990.07
2017-07-31T05:52:37.897Z,990.05
2017-07-31T05:53:37.905Z,990.08
2017-07-31T05:54:37.920Z,990.13
2017-07-31T05:55:37.922Z,990.14
2017-07-31T05:56:37.916Z,990.1
2017-07-31T05:57:37.918Z,990.08
2017-07-31T05:58:37.921Z,990.12
2017-07-31T05:59:37.947Z,990.12
2017-07-31T06:00:37.926Z,990.1
2017-07-31T06:01:37.947Z,990.11
2017-07-31T06:02:37.936Z,990.14
2017-07-31T06:03:37.960Z,990.14
2017-07-31T06:04:37.957Z,990.11
2017-07-31T06:05:37.966Z,990.11
2017-07-31T06:06:37.961Z,990.13
2017-07-31T06:07:37.981Z,990.11
2017-07-31T06:08:37.978Z,990.1
2017-07-31T06:09:37.976Z,990.06
2017-07-31T06:10:37.982Z,990.09
2017-07-31T06:11:37.987Z,990.12
2017-07-31T06:12:37.987Z,990.09
2017-07-31T06:13:38.008Z,990.06
2017-07-31T06:14:38.008Z,990.12
2017-07-31T06:15:38.009Z,990.06
2017-07-31T06:16:38.012Z,990.14
2017-07-31T06:17:38.017Z,990.09
2017-07-31T06:18:38.020Z,990.17
2017-07-31T06:19:38.023Z,990.09
2017-07-31T06:20:38.025Z,990.12
2017-07-31T06:21:38.026Z,990.17
2017-07-31T06:22:38.035Z,990.18
2017-07-31T06:23:38.044Z,990.12
2017-07-31T06:24:38.044Z,990.16
2017-07-31T06:25:38.048Z,990.26
2017-07-31T06:26:38.055Z,990.35
2017-07-31T06:27:38.058Z,990.26
2017-07-31T06:28:38.062Z,990.24
2017-07-31T06:29:38.064Z,990.21
2017-07-31T06:30:38.077Z,990.24
2017-07-31T06:31:38.075Z,990.21
2017-07-31T06:32:38.081Z,990.14
2017-07-31T06:33:38.087Z,990.15
2017-07-31T06:34:38.091Z,990.16
2017-07-31T06:35:38.102Z,990.19
2017-07-31T06:36:38.107Z,990.2
2017-07-31T06:37:38.112Z,990.16
2017-07-31T06:38:38.119Z,990.19
2017-07-31T06:39:38.120Z,990.28
2017-07-31T06:40:38.127Z,990.24
2017-07-31T06:41:38.135Z,990.21
2017-07-31T06:42:38.138Z,990.3
2017-07-31T06:43:38.145Z,990.25
2017-07-31T06:44:38.151Z,990.36
2017-07-31T06:45:38.154Z,990.34
2017-07-31T06:46:38.162Z,990.36
2017-07-31T06:47:38.171Z,990.32
2017-07-31T06:48:38.185Z,990.25
2017-07-31T06:49:38.190Z,990.23
2017-07-31T06:50:38.187Z,990.29
2017-07-31T06:51:38.195Z,990.26
2017-07-31T06:52:38.201Z,990.3
2017-07-31T06:53:38.209Z,990.23
2017-07-31T06:54:38.216Z,990.26
2017-07-31T06:55:38.226Z,990.27
2017-07-31T06:56:38.230Z,990.24
2017-07-31T06:57:38.238Z,990.26
2017-07-31T06:58:38.246Z,990.29
2017-07-31T06:59:38.255Z,990.31
2017-07-31T07:00:38.261Z,990.3
2017-07-31T07:01:38.270Z,990.34
2017-07-31T07:02:38.278Z,990.36
2017-07-31T07:03:38.284Z,990.33
2017-07-31T07:04:38.345Z,990.33
2017-07-31T07:05:38.305Z,990.29
2017-07-31T07:06:38.313Z,990.32
2017-07-31T07:07:38.321Z,990.29
2017-07-31T07:08:38.329Z,990.29
2017-07-31T07:09:38.338Z,990.3
2017-07-31T07:10:38.350Z,990.33
2017-07-31T07:11:38.354Z,990.29
2017-07-31T07:12:38.366Z,990.33
2017-07-31T07:13:38.377Z,990.3
2017-07-31T07:14:38.379Z,990.3
2017-07-31T07:15:38.390Z,990.31
2017-07-31T07:16:38.397Z,990.34
2017-07-31T07:17:38.404Z,990.39
2017-07-31T07:18:38.412Z,990.41
2017-07-31T07:19:40.525Z,990.43
2017-07-31T07:20:38.433Z,990.44
2017-07-31T07:21:38.438Z,990.48
2017-07-31T07:22:38.445Z,990.49
2017-07-31T07:23:38.498Z,990.5
2017-07-31T07:24:38.491Z,990.49
2017-07-31T07:25:38.476Z,990.5
2017-07-31T07:26:38.489Z,990.5
2017-07-31T07:27:38.494Z,990.49
2017-07-31T07:28:38.502Z,990.49
2017-07-31T07:29:38.510Z,990.52
2017-07-31T07:30:38.525Z,990.49
2017-07-31T07:31:38.529Z,990.51
2017-07-31T07:32:38.537Z,990.45
2017-07-31T07:33:38.543Z,990.46
2017-07-31T07:34:38.554Z,990.5
2017-07-31T07:35:38.563Z,990.53
2017-07-31T07:36:38.572Z,990.45
2017-07-31T07:37:38.581Z,990.47
2017-07-31T07:38:38.592Z,990.49
2017-07-31T07:39:38.601Z,990.35
2017-07-31T07:40:38.609Z,990.36
2017-07-31T07:41:38.620Z,990.36
2017-07-31T07:42:38.630Z,990.34
2017-07-31T07:43:38.638Z,990.29
2017-07-31T07:44:38.652Z,990.26
2017-07-31T07:45:38.656Z,990.3
2017-07-31T07:46:38.665Z,990.33
2017-07-31T07:47:38.673Z,990.32
2017-07-31T07:48:38.687Z,990.25
2017-07-31T07:49:38.694Z,990.25
2017-07-31T07:50:38.700Z,990.3
2017-07-31T07:51:38.711Z,990.31
2017-07-31T07:52:38.714Z,990.32
2017-07-31T07:53:38.722Z,990.34
2017-07-31T07:54:38.743Z,990.31
2017-07-31T07:55:38.746Z,990.24
2017-07-31T07:56:38.748Z,990.21
2017-07-31T07:57:38.758Z,990.16
2017-07-31T07:58:38.764Z,990.18
2017-07-31T07:59:38.773Z,990.17
2017-07-31T08:00:38.785Z,990.13
2017-07-31T08:01:38.791Z,990.19
2017-07-31T08:02:38.803Z,990.15
2017-07-31T08:03:38.807Z,990.01
2017-07-31T08:04:38.822Z,990.05
2017-07-31T08:05:38.831Z,990.03
2017-07-31T08:06:38.834Z,990.15
2017-07-31T08:07:38.843Z,990.13
2017-07-31T08:08:38.852Z,990.15
2017-07-31T08:09:38.860Z,990.22
2017-07-31T08:10:38.872Z,990.15
2017-07-31T08:11:38.878Z,990.1
2017-07-31T08:12:38.889Z,990.08
2017-07-31T08:13:38.897Z,990.09
2017-07-31T08:14:38.913Z,990.09
2017-07-31T08:15:39.717Z,990.11
2017-07-31T08:16:38.924Z,990.06
2017-07-31T08:17:38.935Z,990.09
2017-07-31T08:18:38.941Z,990.15
2017-07-31T08:19:38.960Z,990.12
2017-07-31T08:20:38.962Z,990.26
2017-07-31T08:21:38.974Z,990.17
2017-07-31T08:22:38.980Z,990.16
2017-07-31T08:23:38.987Z,990.18
2017-07-31T08:24:38.992Z,990.2
2017-07-31T08:25:39.008Z,990.21
2017-07-31T08:26:39.018Z,990.19
2017-07-31T08:27:39.023Z,990.26
2017-07-31T08:28:39.028Z,990.21
2017-07-31T08:29:39.037Z,990.25
2017-07-31T08:30:39.036Z,990.32
2017-07-31T08:31:39.052Z,990.28
2017-07-31T08:32:39.074Z,990.26
2017-07-31T08:33:39.071Z,990.26
2017-07-31T08:34:39.069Z,990.24
2017-07-31T08:35:39.078Z,990.22
2017-07-31T08:36:39.088Z,990.28
2017-07-31T08:37:39.092Z,990.22
2017-07-31T08:38:39.115Z,990.25
2017-07-31T08:39:39.116Z,990.24
2017-07-31T08:40:39.131Z,990.27
2017-07-31T08:41:39.142Z,990.29
2017-07-31T08:42:39.144Z,990.24
2017-07-31T08:43:39.130Z,990.3
2017-07-31T08:44:39.135Z,990.34
2017-07-31T08:45:39.162Z,990.32
2017-07-31T08:46:39.164Z,990.29
2017-07-31T08:47:39.160Z,990.3
2017-07-31T08:48:39.160Z,990.27
2017-07-31T08:49:39.181Z,990.28
2017-07-31T08:50:39.181Z,990.23
2017-07-31T08:51:39.180Z,990.23
2017-07-31T08:52:39.187Z,990.21
2017-07-31T08:53:39.199Z,990.23
2017-07-31T08:54:39.203Z,990.23
2017-07-31T08:55:39.207Z,990.21
2017-07-31T08:56:39.212Z,990.24
2017-07-31T08:57:39.219Z,990.26
2017-07-31T08:58:39.227Z,990.26
2017-07-31T08:59:39.230Z,990.25
2017-07-31T09:00:39.235Z,990.29
2017-07-31T09:01:39.244Z,990.29
2017-07-31T09:02:39.250Z,990.25
2017-07-31T09:03:39.267Z,990.25
2017-07-31T09:04:39.267Z,990.31
2017-07-31T09:05:39.269Z,990.31
2017-07-31T09:06:39.277Z,990.36
2017-07-31T09:07:39.282Z,990.32
2017-07-31T09:08:39.289Z,990.3
2017-07-31T09:09:39.294Z,990.27
2017-07-31T09:10:39.300Z,990.27
2017-07-31T09:11:39.306Z,990.27
2017-07-31T09:12:39.312Z,990.29
2017-07-31T09:13:39.328Z,990.29
2017-07-31T09:14:39.328Z,990.33
2017-07-31T09:15:39.333Z,990.31
2017-07-31T09:16:39.337Z,990.32
2017-07-31T09:17:39.343Z,990.28
2017-07-31T09:18:39.360Z,990.38
2017-07-31T09:19:39.364Z,990.37
2017-07-31T09:20:39.361Z,990.36
2017-07-31T09:21:42.729Z,990.39
2017-07-31T09:22:39.374Z,990.37
2017-07-31T09:23:39.381Z,990.4
2017-07-31T09:24:39.386Z,990.43
2017-07-31T09:25:39.396Z,990.42
2017-07-31T09:26:39.401Z,990.46
2017-07-31T09:27:39.409Z,990.45
2017-07-31T09:28:39.413Z,990.38
2017-07-31T09:29:39.422Z,990.38
2017-07-31T09:30:39.428Z,990.33
2017-07-31T09:31:39.433Z,990.37
2017-07-31T09:32:39.440Z,990.35
2017-07-31T09:33:39.447Z,990.36
2017-07-31T09:34:39.456Z,990.44
2017-07-31T09:35:39.460Z,990.38
2017-07-31T09:36:39.470Z,990.34
2017-07-31T09:37:39.474Z,990.33
2017-07-31T09:38:39.482Z,990.35
2017-07-31T09:39:39.488Z,990.33
2017-07-31T09:40:39.499Z,990.37
2017-07-31T09:41:39.501Z,990.39
2017-07-31T09:42:39.508Z,990.37
2017-07-31T09:43:39.515Z,990.35
2017-07-31T09:44:39.522Z,990.43
2017-07-31T09:45:39.528Z,990.44
2017-07-31T09:46:39.536Z,990.42
2017-07-31T09:47:39.543Z,990.43
2017-07-31T09:48:39.548Z,990.39
2017-07-31T09:49:39.557Z,990.39
2017-07-31T09:50:39.564Z,990.4
2017-07-31T09:51:39.573Z,990.38
2017-07-31T09:52:39.577Z,990.47
2017-07-31T09:53:39.588Z,990.39
2017-07-31T09:54:39.593Z,990.29
2017-07-31T09:55:39.600Z,990.24
2017-07-31T09:56:39.609Z,990.21
2017-07-31T09:57:39.615Z,990.18
2017-07-31T09:58:39.625Z,990.17
2017-07-31T09:59:39.634Z,990.14
2017-07-31T10:00:39.638Z,990.08
2017-07-31T10:01:39.655Z,990.06
2017-07-31T10:02:39.654Z,989.98
2017-07-31T10:03:39.661Z,990
2017-07-31T10:04:39.667Z,989.98
2017-07-31T10:05:39.676Z,989.94
2017-07-31T10:06:39.681Z,989.98
2017-07-31T10:07:39.689Z,989.96
2017-07-31T10:08:39.697Z,990.02
2017-07-31T10:09:39.717Z,990.06
2017-07-31T10:10:39.717Z,990.1
2017-07-31T10:11:39.722Z,990.07
2017-07-31T10:12:39.727Z,990.05
2017-07-31T10:13:39.732Z,990.04
2017-07-31T10:14:39.750Z,990.01
2017-07-31T10:15:39.748Z,990.01
2017-07-31T10:16:39.757Z,990.04
2017-07-31T10:17:39.763Z,990.05
2017-07-31T10:18:39.770Z,990.06
2017-07-31T10:19:39.782Z,990.02
2017-07-31T10:20:39.785Z,989.99
2017-07-31T10:21:39.791Z,989.92
2017-07-31T10:22:41.751Z,989.99
2017-07-31T10:23:39.815Z,989.87
2017-07-31T10:24:39.813Z,989.88
2017-07-31T10:25:39.820Z,989.88
2017-07-31T10:26:39.830Z,989.88
2017-07-31T10:27:39.836Z,989.9
2017-07-31T10:28:39.843Z,989.86
2017-07-31T10:29:39.850Z,989.82
2017-07-31T10:30:39.858Z,989.85
2017-07-31T10:31:39.866Z,989.78
2017-07-31T10:32:39.873Z,989.75
2017-07-31T10:33:39.885Z,989.73
2017-07-31T10:34:39.889Z,989.71
2017-07-31T10:35:39.899Z,989.77
2017-07-31T10:36:39.902Z,989.73
2017-07-31T10:37:39.910Z,989.76
2017-07-31T10:38:39.916Z,989.77
2017-07-31T10:39:39.922Z,989.77
2017-07-31T10:40:39.931Z,989.79
2017-07-31T10:41:39.938Z,989.78
2017-07-31T10:42:39.947Z,989.78
2017-07-31T10:43:39.952Z,989.81
2017-07-31T10:44:39.964Z,989.73
2017-07-31T10:45:39.968Z,989.73
2017-07-31T10:46:39.974Z,989.71
2017-07-31T10:47:39.980Z,989.7
2017-07-31T10:48:39.988Z,989.67
2017-07-31T10:49:39.996Z,989.67
2017-07-31T10:50:40.001Z,989.65
2017-07-31T10:51:40.009Z,989.66
2017-07-31T10:52:40.020Z,989.63
2017-07-31T10:53:40.059Z,989.64
2017-07-31T10:54:40.029Z,989.64
2017-07-31T10:55:40.036Z,989.74
2017-07-31T10:56:40.047Z,989.77
2017-07-31T10:57:40.051Z,989.74
2017-07-31T10:58:40.059Z,989.79
2017-07-31T10:59:40.067Z,989.8
2017-07-31T11:00:40.080Z,989.82
2017-07-31T11:01:40.081Z,989.84
2017-07-31T11:02:40.087Z,989.82
2017-07-31T11:03:40.096Z,989.83
2017-07-31T11:04:40.104Z,989.86
2017-07-31T11:05:40.108Z,989.81
2017-07-31T11:06:40.121Z,989.82
2017-07-31T11:07:40.124Z,989.79
2017-07-31T11:08:40.181Z,989.77
2017-07-31T11:09:40.147Z,989.77
2017-07-31T11:10:40.142Z,989.75
2017-07-31T11:11:40.150Z,989.74
2017-07-31T11:12:40.170Z,989.74
2017-07-31T11:13:40.169Z,989.81
2017-07-31T11:14:40.170Z,989.71
2017-07-31T11:15:40.177Z,989.77
2017-07-31T11:16:40.190Z,989.69
2017-07-31T11:17:40.193Z,989.79
2017-07-31T11:18:40.199Z,989.77
2017-07-31T11:19:40.205Z,989.7
2017-07-31T11:20:40.212Z,989.72
2017-07-31T11:21:40.232Z,989.62
2017-07-31T11:22:40.228Z,989.62
2017-07-31T11:23:41.282Z,989.67
2017-07-31T11:24:40.240Z,989.67
2017-07-31T11:25:40.249Z,989.66
2017-07-31T11:26:40.256Z,989.71
2017-07-31T11:27:40.259Z,989.78
2017-07-31T11:28:40.268Z,989.86
2017-07-31T11:29:40.277Z,989.84
2017-07-31T11:30:40.281Z,989.79
2017-07-31T11:31:40.289Z,989.77
2017-07-31T11:32:40.295Z,989.73
2017-07-31T11:33:40.303Z,989.74
2017-07-31T11:34:40.327Z,989.77
2017-07-31T11:35:40.317Z,989.79
2017-07-31T11:36:40.325Z,989.7
2017-07-31T11:37:40.333Z,989.72
2017-07-31T11:38:40.339Z,989.68
2017-07-31T11:39:40.348Z,989.67
2017-07-31T11:40:40.354Z,989.65
2017-07-31T11:41:40.361Z,989.61
2017-07-31T11:42:40.368Z,989.6
2017-07-31T11:43:40.376Z,989.63
2017-07-31T11:44:40.385Z,989.68
2017-07-31T11:45:40.391Z,989.62
2017-07-31T11:46:40.401Z,989.67
2017-07-31T11:47:40.405Z,989.74
2017-07-31T11:48:40.411Z,989.68
2017-07-31T11:49:40.416Z,989.65
2017-07-31T11:50:40.426Z,989.7
2017-07-31T11:51:40.431Z,989.79
2017-07-31T11:52:40.443Z,989.88
2017-07-31T11:53:40.445Z,989.88
2017-07-31T11:54:40.452Z,989.86
2017-07-31T11:55:40.458Z,989.86
2017-07-31T11:56:40.466Z,989.92
2017-07-31T11:57:40.473Z,990.03
2017-07-31T11:58:40.479Z,990.02
2017-07-31T11:59:40.503Z,990.03
2017-07-31T12:00:40.495Z,990.07
2017-07-31T12:01:40.502Z,990.07
2017-07-31T12:02:40.510Z,990.13
2017-07-31T12:03:40.546Z,990.05
2017-07-31T12:04:40.522Z,990.07
2017-07-31T12:05:40.532Z,990.11
2017-07-31T12:06:40.537Z,990.11
2017-07-31T12:07:40.543Z,990.17
2017-07-31T12:08:40.551Z,990.18
2017-07-31T12:09:40.558Z,990.1
2017-07-31T12:10:40.565Z,990.07
2017-07-31T12:11:40.572Z,989.99
2017-07-31T12:12:40.581Z,989.96
2017-07-31T12:13:40.588Z,989.88
2017-07-31T12:14:40.594Z,989.78
2017-07-31T12:15:40.602Z,989.63
2017-07-31T12:16:40.607Z,989.65
2017-07-31T12:17:40.616Z,989.62
2017-07-31T12:18:40.622Z,989.63
2017-07-31T12:19:40.630Z,989.71
2017-07-31T12:20:40.772Z,989.64
2017-07-31T12:21:40.645Z,989.63
2017-07-31T12:22:40.656Z,989.68
2017-07-31T12:23:40.676Z,989.65
2017-07-31T12:24:40.671Z,989.68
2017-07-31T12:25:40.680Z,989.68
2017-07-31T12:26:40.683Z,989.74
2017-07-31T12:27:40.691Z,989.82
2017-07-31T12:28:40.699Z,989.76
2017-07-31T12:29:40.706Z,989.8
2017-07-31T12:30:40.719Z,989.78
2017-07-31T12:31:40.737Z,989.76